首页
METAR-TAF:

METAR-TAF

机场 :

Edinburg, 得克萨斯州, 美国

纬度: 26-26-31N, 经度: 098-07-46W, 海拔: 24米

当前天气观测

该预报发布于16分钟前的23:35 UTC
风速9节,风向南转南东
温度 26°C
湿度 61%
气压 1008 hPa
能見度: 16.1公里
天空无云

METAR: KEBG 092335Z AUTO 15009KT 10SM CLR 26/18 A2976 RMK AO2 T02550181

时间: 17:51 (23:51 UTC)


TAF: 丢失

超过4000个机场的气象观测和天气预报(METAR&TAF报告)。

可查询的气象台以黄色和红色小点在地图上表示。

将鼠标移到小点上方,可查看气象台名称。

然后点击查看天气观测和预报。

如需切换地图:点击带黑十字的绿色按钮放大地图;点击带横线的绿色按钮缩小地图;或者点击绿色箭头查看邻近地区的地图。


METAR-TAF: